カンクン の空港の天気 - METARとTAF

カンクン国際空港 ( MMUN / CUN ) - メキシコ キンタナ・ロー州カンクン
飛行場実況気象(Metar)
観測時間05/28 17:51 CDT (05/28 22:51 UTC)
風向・風速東北東 4m/s
視程9650m
天気現象
全天の4割程度の雲 雲底高度 460m
全天の8割程度の雲 雲底高度 2740m
全天を覆う雲 雲底高度 7620m
気温28℃
湿度74%
気圧1012hPa
METARMMUN 282251Z 07007KT 6SM SCT015 BKN090 OVC250 28/23 A2988 RMK 8/177 HZ BINOVC
過去の天気等 Google飛行場航空写真 Wunderground天気予報

過去48時間のMETAR

飛行場予報(TAF)
発表時間: 5/28 11:33 CDT (5/28 16:33 UTC)
予報対象時間: 28日13時 CDT ~ 29日19時 CDT
風向・風速東南東 5m/s
視程10km以上
全天の4割程度の雲 雲底高度 460m
全天の8割程度の雲 雲底高度 3050m
全天の8割程度の雲 雲底高度 7620m
28日21時 CDT から
風向・風速東南東 5m/s
視程10km以上
全天の8割程度の雲 雲底高度 460m
全天の8割程度の雲 雲底高度 6100m
29日4時 CDT ~ 29日5時 CDT に徐々に
視程10km以上
天気現象弱い雨
29日10時 CDT から
風向・風速東南東 7m/s
視程10km以上
全天の4割程度の雲 雲底高度 460m
全天の8割程度の雲 雲底高度 2740m
29日14時 CDT ~ 29日15時 CDT に徐々に
視程10km以上
天気現象弱い雨
29日15時 CDT ~ 29日19時 CDT に一時的に
視程8050m
天気現象
全天の8割程度の積乱雲 雲底高度 460m
TAF MMUN 281633Z 2818/2924 11010KT P6SM SCT015 BKN100 BKN250 TX30/2918Z TN23/2911Z
FM290200 12010KT P6SM BKN015 BKN200
BECMG 2909/2910 6SM -RA
FM291500 12014KT P6SM SCT015 BKN090
BECMG 2919/2920 6SM -RA
TEMPO 2920/2924 5SM RA BKN015CB